Time;durP1;ratioP1;P1;durP2;ratioP2;P2;SDS_P1;SDS_P2;PMS_P1;PMS_P2;Temp;Humidity;BMP_temperature;BMP_pressure;BME280_temperature;BME280_humidity;BME280_pressure;Samples;Min_cycle;Max_cycle;Signal;HPM_P1;HPM_P2
2021/06/03 00:01:16;;;;;;;11.60;2.53;;;;;;;11.58;57.96;101062.67;125692;1101;22713;-57
2021/06/03 00:03:47;;;;;;;11.07;2.90;;;;;;;11.51;57.85;101063.76;125796;1096;22753;-57
2021/06/03 00:06:18;;;;;;;10.37;2.67;;;;;;;11.44;58.24;101066.09;125744;1101;22761;-60
2021/06/03 00:08:49;;;;;;;8.93;2.40;;;;;;;11.40;57.96;101058.63;125928;1101;22876;-57
2021/06/03 00:11:19;;;;;;;8.80;3.28;;;;;;;11.41;58.18;101065.00;125855;1101;22924;-58
2021/06/03 00:13:49;;;;;;;11.33;3.28;;;;;;;11.37;58.04;101064.38;125812;1101;22825;-57
2021/06/03 00:16:20;;;;;;;11.50;3.97;;;;;;;11.33;57.95;101064.54;125855;1096;25858;-59
2021/06/03 00:18:50;;;;;;;13.68;3.75;;;;;;;11.28;58.45;101067.94;125822;1101;24647;-57
2021/06/03 00:21:20;;;;;;;13.80;3.28;;;;;;;11.20;58.76;101071.49;125977;1101;22769;-55
2021/06/03 00:23:51;;;;;;;14.83;3.87;;;;;;;11.14;58.71;101079.72;125672;1097;27290;-58
2021/06/03 00:26:20;;;;;;;9.80;3.30;;;;;;;11.07;58.83;101079.25;125749;1096;25852;-60
2021/06/03 00:28:50;;;;;;;10.78;2.90;;;;;;;10.99;58.90;101080.75;125547;1097;27155;-58
2021/06/03 00:31:22;;;;;;;13.80;3.17;;;;;;;10.93;59.61;101077.80;125858;1096;26222;-58
2021/06/03 00:33:52;;;;;;;12.63;3.80;;;;;;;10.86;59.44;101080.90;125808;1101;22738;-58
2021/06/03 00:36:23;;;;;;;10.57;3.03;;;;;;;10.79;59.57;101074.80;125819;1101;22737;-58
2021/06/03 00:38:54;;;;;;;11.93;3.07;;;;;;;10.71;59.63;101065.95;125822;1096;26226;-56
2021/06/03 00:41:27;;;;;;;10.80;3.07;;;;;;;10.68;59.66;101075.23;125885;1096;27583;-58
2021/06/03 00:44:01;;;;;;;10.13;2.97;;;;;;;10.62;59.55;101065.90;125647;1104;22987;-58
2021/06/03 00:46:31;;;;;;;11.10;3.07;;;;;;;10.53;59.85;101075.02;125802;1096;22743;-58
2021/06/03 00:49:02;;;;;;;11.78;3.78;;;;;;;10.45;60.07;101079.32;125863;1101;22764;-57
2021/06/03 00:51:32;;;;;;;11.30;3.57;;;;;;;10.40;59.96;101077.14;125872;1101;22822;-58
2021/06/03 00:54:02;;;;;;;11.00;3.25;;;;;;;10.36;59.90;101079.30;125807;1096;22764;-58
2021/06/03 00:56:35;;;;;;;12.10;2.85;;;;;;;10.29;60.10;101076.77;125642;1104;22768;-57
2021/06/03 00:59:06;;;;;;;13.40;3.70;;;;;;;10.24;60.11;101073.80;125576;1104;22748;-58
2021/06/03 01:01:39;;;;;;;11.47;3.23;;;;;;;10.21;60.02;101077.48;125884;1101;22812;-57
2021/06/03 01:04:09;;;;;;;11.87;3.10;;;;;;;10.21;59.89;101080.28;125660;1097;27616;-58
2021/06/03 01:06:39;;;;;;;9.87;3.07;;;;;;;10.16;60.28;101078.85;125644;1102;22740;-56
2021/06/03 01:09:16;;;;;;;9.85;3.05;;;;;;;10.09;60.36;101079.11;125556;1104;22830;-58
2021/06/03 01:11:51;;;;;;;10.57;2.90;;;;;;;10.06;60.36;101077.21;125667;1101;22769;-58
2021/06/03 01:14:27;;;;;;;10.87;3.53;;;;;;;10.05;60.51;101080.46;125588;1104;22838;-58
2021/06/03 01:17:00;;;;;;;9.30;3.30;;;;;;;10.04;60.54;101079.68;125836;1096;22786;-58
2021/06/03 01:19:34;;;;;;;11.37;2.83;;;;;;;10.00;60.90;101076.25;125950;1101;22761;-57
2021/06/03 01:22:11;;;;;;;13.87;3.70;;;;;;;10.03;60.80;101075.34;125844;1096;25852;-58
2021/06/03 01:24:43;;;;;;;14.07;4.17;;;;;;;10.05;61.00;101084.04;125986;1101;22990;-58
2021/06/03 01:27:16;;;;;;;12.40;3.97;;;;;;;10.09;60.91;101084.69;125800;1096;27330;-58
2021/06/03 01:29:52;;;;;;;10.80;3.20;;;;;;;10.11;61.21;101075.88;125921;1096;27150;-57
2021/06/03 01:32:23;;;;;;;9.90;3.20;;;;;;;10.11;61.16;101087.83;125702;1097;27584;-58
2021/06/03 01:34:55;;;;;;;14.13;4.00;;;;;;;10.12;61.24;101085.80;125609;1104;22765;-58
2021/06/03 01:37:26;;;;;;;11.27;3.53;;;;;;;10.07;61.73;101083.58;126002;1085;22746;-60
2021/06/03 01:39:57;;;;;;;12.00;3.70;;;;;;;10.07;61.69;101072.41;126290;1096;22754;-60
2021/06/03 01:42:28;;;;;;;14.17;4.23;;;;;;;10.03;61.74;101074.56;126231;1096;25828;-60
2021/06/03 01:44:58;;;;;;;13.93;3.75;;;;;;;10.02;61.76;101078.57;126679;1096;22761;-57
2021/06/03 01:47:29;;;;;;;16.50;4.27;;;;;;;9.98;61.98;101072.34;126328;1101;22874;-59
2021/06/03 01:49:59;;;;;;;;;;;;;;;9.92;62.44;101074.95;126332;1101;22913;-60
2021/06/03 01:52:32;;;;;;;12.70;3.70;;;;;;;9.82;62.49;101076.13;126416;1101;21522;-58
2021/06/03 01:55:04;;;;;;;9.87;3.00;;;;;;;9.77;62.61;101085.06;130101;1101;22492;-60
2021/06/03 01:57:37;;;;;;;9.23;3.07;;;;;;;9.70;62.72;101074.19;130151;1101;22567;-61
2021/06/03 02:00:12;;;;;;;12.37;3.70;;;;;;;9.60;62.70;101069.77;126364;1101;22737;-60
2021/06/03 02:02:42;;;;;;;10.87;3.00;;;;;;;9.53;62.77;101078.38;126437;1096;25890;-60
2021/06/03 02:05:15;;;;;;;12.65;3.75;;;;;;;9.44;62.75;101073.48;126333;1101;22739;-58
2021/06/03 02:07:45;;;;;;;11.93;3.43;;;;;;;9.41;62.55;101073.63;126537;1101;22760;-58
2021/06/03 02:10:18;;;;;;;9.48;3.45;;;;;;;9.40;62.58;101074.84;126176;1101;22743;-58
2021/06/03 02:12:56;;;;;;;11.47;3.10;;;;;;;9.38;62.63;101068.94;126259;1101;22741;-58
2021/06/03 02:15:29;;;;;;;11.43;3.43;;;;;;;9.40;62.78;101066.48;126278;1101;22741;-58
2021/06/03 02:18:02;;;;;;;11.47;3.60;;;;;;;9.39;63.00;101071.30;126322;1101;22750;-58
2021/06/03 02:20:36;;;;;;;12.70;3.87;;;;;;;9.41;63.05;101074.41;126263;1101;22763;-59
2021/06/03 02:23:06;;;;;;;10.47;3.30;;;;;;;9.41;63.06;101077.20;126170;1101;22877;-60
2021/06/03 02:25:35;;;;;;;;;;;;;;;9.39;63.40;101079.66;126223;1096;26328;-59
2021/06/03 02:28:07;;;;;;;13.20;3.33;;;;;;;9.35;63.37;101078.97;126279;1101;21468;-58
2021/06/03 02:30:38;;;;;;;12.13;3.77;;;;;;;9.31;63.54;101081.10;126242;1101;22835;-60
2021/06/03 02:33:08;;;;;;;11.27;3.97;;;;;;;9.30;63.56;101078.77;126140;1101;22740;-59
2021/06/03 02:35:38;;;;;;;12.08;3.60;;;;;;;9.27;63.67;101083.23;126385;1096;25755;-61
2021/06/03 02:38:09;;;;;;;11.03;3.23;;;;;;;9.25;63.85;101085.69;126167;1101;22849;-59
2021/06/03 02:40:42;;;;;;;14.13;4.03;;;;;;;9.23;63.74;101081.82;126230;1096;25153;-59
2021/06/03 02:43:14;;;;;;;14.83;4.43;;;;;;;9.22;63.76;101085.82;126230;1101;22755;-59
2021/06/03 02:45:44;;;;;;;16.67;3.60;;;;;;;9.21;63.98;101084.28;126345;1096;28132;-60
2021/06/03 02:48:15;;;;;;;11.70;4.10;;;;;;;9.22;63.87;101091.39;126386;1101;22687;-59
2021/06/03 02:50:46;;;;;;;10.63;3.77;;;;;;;9.20;64.13;101088.28;126294;1096;26200;-59
2021/06/03 02:53:15;;;;;;;;;;;;;;;9.22;64.41;101096.97;126231;1101;22741;-59
2021/06/03 02:55:46;;;;;;;14.63;4.10;;;;;;;9.18;64.31;101096.30;126270;1096;23251;-57
2021/06/03 02:58:17;;;;;;;10.40;4.07;;;;;;;9.15;64.52;101088.83;126322;1101;23455;-59
2021/06/03 03:00:47;;;;;;;13.77;3.87;;;;;;;9.16;64.54;101093.19;126259;1101;22778;-58
2021/06/03 03:03:19;;;;;;;15.17;5.07;;;;;;;9.15;64.75;101094.41;126257;1101;22955;-59
2021/06/03 03:05:48;;;;;;;12.80;4.27;;;;;;;9.12;64.84;101092.53;126332;1096;26385;-59
2021/06/03 03:08:19;;;;;;;13.75;4.83;;;;;;;9.13;64.94;101102.43;126364;1096;25729;-58
2021/06/03 03:10:52;;;;;;;11.45;3.95;;;;;;;9.11;65.08;101102.10;126201;1101;22834;-57
2021/06/03 03:13:23;;;;;;;9.43;3.63;;;;;;;9.13;65.09;101105.22;126216;1096;26280;-58
2021/06/03 03:15:54;;;;;;;14.33;4.33;;;;;;;9.11;65.02;101116.03;126224;1101;22703;-60
2021/06/03 03:18:24;;;;;;;11.80;4.07;;;;;;;9.10;65.05;101126.41;126278;1101;22762;-62
2021/06/03 03:20:54;;;;;;;12.40;3.80;;;;;;;9.12;65.38;101128.75;126253;1101;22771;-57
2021/06/03 03:23:25;;;;;;;11.60;3.87;;;;;;;9.12;65.63;101126.75;126296;1101;22722;-59
2021/06/03 03:25:55;;;;;;;12.23;4.97;;;;;;;9.14;65.62;101134.64;126441;1101;22737;-57
2021/06/03 03:28:27;;;;;;;15.13;5.03;;;;;;;9.15;65.87;101134.19;126299;1101;24505;-58
2021/06/03 03:30:58;;;;;;;14.67;5.30;;;;;;;9.16;65.95;101140.55;126228;1101;22741;-59
2021/06/03 03:33:29;;;;;;;16.47;4.70;;;;;;;9.18;65.97;101133.31;126198;1101;22745;-60
2021/06/03 03:35:59;;;;;;;13.83;5.50;;;;;;;9.21;66.20;101142.78;126600;1101;22819;-60
2021/06/03 03:38:28;;;;;;;;;;;;;;;9.25;66.27;101149.02;126319;1101;24434;-58
2021/06/03 03:40:58;;;;;;;16.10;4.85;;;;;;;9.26;66.67;101142.20;126149;1101;21454;-58
2021/06/03 03:43:28;;;;;;;13.95;5.03;;;;;;;9.29;66.39;101153.22;126223;1101;24138;-59
2021/06/03 03:45:58;;;;;;;13.10;5.15;;;;;;;9.34;66.74;101149.09;126307;1096;26209;-58
2021/06/03 03:48:29;;;;;;;12.63;4.80;;;;;;;9.36;66.43;101146.64;126296;1096;24387;-58
2021/06/03 03:51:00;;;;;;;14.97;4.93;;;;;;;9.41;66.86;101151.66;126292;1101;22755;-58
2021/06/03 03:53:30;;;;;;;14.87;5.13;;;;;;;9.47;66.61;101147.86;126266;1101;22737;-57
2021/06/03 03:56:00;;;;;;;18.13;5.63;;;;;;;9.54;66.59;101142.02;126346;1101;22765;-58
2021/06/03 03:58:31;;;;;;;16.93;4.98;;;;;;;9.59;66.72;101141.47;126328;1101;22826;-58
2021/06/03 04:01:02;;;;;;;16.77;5.33;;;;;;;9.67;66.74;101139.98;126364;1101;22701;-60
2021/06/03 04:03:32;;;;;;;13.07;5.20;;;;;;;9.74;66.98;101136.93;126270;1101;22759;-58
2021/06/03 04:06:03;;;;;;;16.78;5.48;;;;;;;9.81;67.02;101137.94;126343;1096;25895;-59
2021/06/03 04:08:35;;;;;;;16.23;5.27;;;;;;;9.90;67.20;101144.36;126341;1101;24383;-58
2021/06/03 04:11:05;;;;;;;14.47;5.03;;;;;;;9.98;67.35;101145.66;126330;1101;22734;-58
2021/06/03 04:13:36;;;;;;;13.80;5.40;;;;;;;10.04;67.22;101149.42;126341;1101;22748;-60
2021/06/03 04:16:06;;;;;;;15.47;5.73;;;;;;;10.13;67.04;101148.75;126435;1101;22816;-60
2021/06/03 04:18:36;;;;;;;16.23;5.30;;;;;;;10.20;67.24;101145.70;126280;1101;22706;-58
2021/06/03 04:21:10;;;;;;;16.63;6.25;;;;;;;10.28;67.36;101147.75;126271;1101;22734;-59
2021/06/03 04:23:40;;;;;;;18.63;5.50;;;;;;;10.39;67.46;101144.56;126588;1101;22835;-58
2021/06/03 04:26:10;;;;;;;17.53;6.03;;;;;;;10.51;67.31;101155.66;126384;1101;22835;-58
2021/06/03 04:28:41;;;;;;;18.03;6.23;;;;;;;10.62;67.37;101148.88;126293;1101;22754;-60
2021/06/03 04:31:12;;;;;;;25.30;5.87;;;;;;;10.74;67.32;101153.63;126422;1101;22761;-60
2021/06/03 04:33:45;;;;;;;14.57;5.60;;;;;;;10.87;67.62;101152.28;126344;1101;22738;-58
2021/06/03 04:36:15;;;;;;;15.50;5.00;;;;;;;10.98;67.35;101154.66;126401;1101;22730;-60
2021/06/03 04:38:47;;;;;;;15.60;5.95;;;;;;;11.12;67.15;101160.45;126281;1096;22848;-61
2021/06/03 04:41:18;;;;;;;18.00;5.90;;;;;;;11.26;67.07;101159.08;126363;1101;22741;-62
2021/06/03 04:43:48;;;;;;;18.50;6.00;;;;;;;11.44;66.95;101167.53;126319;1096;22754;-59
2021/06/03 04:46:18;;;;;;;15.63;4.80;;;;;;;11.58;66.81;101163.36;126255;1101;22733;-61
2021/06/03 04:48:49;;;;;;;15.23;5.03;;;;;;;11.72;66.81;101171.17;126283;1096;27573;-59
2021/06/03 04:51:19;;;;;;;16.75;5.40;;;;;;;11.87;66.53;101172.13;126718;1101;22850;-61
2021/06/03 04:53:50;;;;;;;14.53;5.55;;;;;;;11.99;66.65;101173.98;126450;1096;25729;-60
2021/06/03 04:56:20;;;;;;;17.53;5.77;;;;;;;12.13;66.21;101170.55;126166;1101;22790;-62
2021/06/03 04:58:51;;;;;;;14.63;5.93;;;;;;;12.27;66.33;101174.77;126338;1101;24429;-62
2021/06/03 05:01:22;;;;;;;20.03;6.13;;;;;;;12.44;65.89;101175.95;127845;1101;22757;-62
2021/06/03 05:03:51;;;;;;;16.78;5.95;;;;;;;12.58;65.93;101180.94;127835;1101;22849;-62
2021/06/03 05:06:21;;;;;;;15.20;5.83;;;;;;;12.68;65.89;101174.81;126589;1101;23369;-62
2021/06/03 05:08:51;;;;;;;15.80;5.97;;;;;;;12.82;65.72;101179.77;126153;1101;24439;-62
2021/06/03 05:11:21;;;;;;;17.60;6.35;;;;;;;12.94;65.77;101181.59;126077;1096;27326;-63
2021/06/03 05:13:51;;;;;;;13.70;5.55;;;;;;;13.06;65.70;101179.85;126094;1101;24382;-62
2021/06/03 05:16:21;;;;;;;17.63;6.30;;;;;;;13.19;65.39;101185.25;126137;1101;22813;-62
2021/06/03 05:18:50;;;;;;;14.43;5.38;;;;;;;13.27;65.17;101181.63;126038;1101;22742;-61
2021/06/03 05:21:20;;;;;;;15.98;6.05;;;;;;;13.34;64.95;101184.09;126029;1101;22741;-62
2021/06/03 05:23:50;;;;;;;17.50;5.88;;;;;;;13.47;65.19;101187.44;126263;1101;22734;-60
2021/06/03 05:26:20;;;;;;;18.75;5.80;;;;;;;13.63;64.95;101189.86;126080;1096;26158;-61
2021/06/03 05:28:50;;;;;;;15.28;6.10;;;;;;;13.81;64.62;101183.33;126120;1096;25751;-62
2021/06/03 05:31:20;;;;;;;17.80;6.50;;;;;;;13.97;64.62;101196.14;126218;1101;22718;-62
2021/06/03 05:33:50;;;;;;;16.53;6.33;;;;;;;14.12;64.49;101194.94;126553;1096;25715;-62
2021/06/03 05:36:20;;;;;;;18.10;6.35;;;;;;;14.26;64.31;101196.21;126156;1101;22737;-62
2021/06/03 05:38:49;;;;;;;18.13;6.53;;;;;;;14.37;64.31;101191.63;126201;1101;22816;-59
2021/06/03 05:41:19;;;;;;;15.95;6.10;;;;;;;14.51;63.94;101202.10;125955;1096;22744;-62
2021/06/03 05:43:49;;;;;;;17.48;5.60;;;;;;;14.66;63.36;101195.70;125943;1101;22758;-62
2021/06/03 05:46:19;;;;;;;19.40;6.63;;;;;;;14.80;63.11;101206.16;125888;1101;22755;-60
2021/06/03 05:48:49;;;;;;;14.75;5.95;;;;;;;14.91;62.94;101206.37;126154;1101;24533;-61
2021/06/03 05:51:20;;;;;;;20.23;6.83;;;;;;;15.04;62.69;101212.47;126044;1101;22734;-62
2021/06/03 05:53:50;;;;;;;18.80;6.90;;;;;;;15.10;62.21;101208.49;126383;1101;22758;-61
2021/06/03 05:56:20;;;;;;;16.98;6.80;;;;;;;15.26;62.27;101204.38;126282;1101;22740;-63
2021/06/03 05:58:51;;;;;;;15.68;6.23;;;;;;;15.39;62.02;101214.03;126186;1101;22759;-62
2021/06/03 06:01:22;;;;;;;18.70;6.60;;;;;;;15.47;61.09;101216.48;126090;1096;22741;-63
2021/06/03 06:03:58;;;;;;;20.50;6.73;;;;;;;15.56;61.09;101217.12;125985;1101;24433;-61
2021/06/03 06:06:32;;;;;;;14.25;5.30;;;;;;;15.62;61.18;101223.60;126254;1096;22757;-61
2021/06/03 06:09:05;;;;;;;14.45;5.50;;;;;;;15.76;61.29;101219.98;126128;1096;27114;-62
2021/06/03 06:11:38;;;;;;;16.50;5.60;;;;;;;15.93;60.91;101218.14;126211;1096;22904;-62
2021/06/03 06:14:15;;;;;;;18.03;5.57;;;;;;;16.05;60.32;101222.67;126420;1101;22775;-62
2021/06/03 06:16:46;;;;;;;17.43;5.97;;;;;;;16.16;59.73;101222.00;126792;1096;26335;-61
2021/06/03 06:19:18;;;;;;;20.80;10.00;;;;;;;16.23;60.11;101223.62;126364;1101;22737;-61
2021/06/03 06:21:53;;;;;;;22.45;6.80;;;;;;;16.37;59.40;101229.16;126207;1096;27286;-63
2021/06/03 06:24:29;;;;;;;17.30;6.27;;;;;;;16.52;59.71;101231.92;126295;1101;22816;-62
2021/06/03 06:27:24;;;;;;;16.48;5.45;;;;;;;16.64;58.88;101231.54;126077;1101;22867;-62
2021/06/03 06:29:56;;;;;;;16.75;5.70;;;;;;;16.77;58.77;101226.30;126400;1101;22764;-62
2021/06/03 06:32:26;;;;;;;12.30;4.95;;;;;;;16.85;58.60;101224.57;126261;1096;26252;-62
2021/06/03 06:34:56;;;;;;;14.80;4.90;;;;;;;16.93;58.16;101230.52;125851;1096;22704;-63
2021/06/03 06:37:26;;;;;;;16.30;5.15;;;;;;;16.99;57.93;101232.13;126083;1096;22797;-63
2021/06/03 06:39:57;;;;;;;13.43;4.95;;;;;;;17.11;57.40;101229.41;126134;1096;25809;-62
2021/06/03 06:42:29;;;;;;;14.83;4.73;;;;;;;17.20;56.62;101226.38;125976;1096;25758;-62
2021/06/03 06:45:00;;;;;;;12.05;4.30;;;;;;;17.24;56.86;101232.57;125916;1101;24575;-61
2021/06/03 06:47:31;;;;;;;13.45;4.15;;;;;;;17.35;56.25;101232.66;125919;1101;22737;-60
2021/06/03 06:50:01;;;;;;;14.10;4.90;;;;;;;17.44;56.13;101229.66;126075;1096;22754;-59
2021/06/03 06:52:31;;;;;;;12.87;3.93;;;;;;;17.55;56.22;101230.52;126107;1096;25752;-61
2021/06/03 06:55:02;;;;;;;10.18;3.10;;;;;;;17.71;56.13;101234.74;126148;1096;24453;-60
2021/06/03 06:57:33;;;;;;;11.80;3.80;;;;;;;17.78;55.51;101229.38;126018;1101;22895;-61
2021/06/03 07:00:06;;;;;;;9.45;3.45;;;;;;;17.85;55.16;101230.96;126300;1101;22901;-61
2021/06/03 07:02:36;;;;;;;10.00;2.87;;;;;;;17.95;54.63;101229.47;126436;1101;24329;-59
2021/06/03 07:05:09;;;;;;;10.75;3.15;;;;;;;18.07;54.79;101230.27;126071;1101;22741;-59
2021/06/03 07:07:39;;;;;;;11.33;2.67;;;;;;;18.21;54.23;101230.08;126422;1096;23230;-61
2021/06/03 07:10:12;;;;;;;10.10;3.37;;;;;;;18.36;53.81;101229.88;126324;1101;22771;-59
2021/06/03 07:12:43;;;;;;;11.93;2.27;;;;;;;18.47;53.37;101229.94;126312;1096;22936;-60
2021/06/03 07:15:15;;;;;;;7.70;2.07;;;;;;;18.60;53.35;101235.89;126301;1101;24563;-59
2021/06/03 07:17:46;;;;;;;11.57;2.80;;;;;;;18.68;52.97;101225.63;126267;1096;22907;-60
2021/06/03 07:20:19;;;;;;;11.20;2.30;;;;;;;18.74;52.14;101229.23;126158;1101;22932;-60
2021/06/03 07:22:51;;;;;;;10.77;2.33;;;;;;;18.78;52.33;101223.31;126300;1101;22769;-60
2021/06/03 07:25:24;;;;;;;7.65;2.35;;;;;;;18.90;51.74;101224.86;126245;1101;22932;-61
2021/06/03 07:27:56;;;;;;;8.40;2.03;;;;;;;18.99;51.34;101230.27;126486;1101;22775;-58
2021/06/03 07:30:28;;;;;;;6.35;1.55;;;;;;;19.11;50.75;101232.59;126026;1101;23037;-61
2021/06/03 07:32:59;;;;;;;5.30;1.80;;;;;;;19.24;50.51;101226.42;125965;1101;22753;-63
2021/06/03 07:35:31;;;;;;;8.40;1.80;;;;;;;19.37;49.92;101229.50;125894;1096;27516;-62
2021/06/03 07:38:02;;;;;;;7.15;1.70;;;;;;;19.49;49.27;101233.11;125996;1101;22803;-62
2021/06/03 07:40:35;;;;;;;7.75;1.80;;;;;;;19.54;48.79;101235.92;125821;1101;22775;-62
2021/06/03 07:43:07;;;;;;;10.55;1.80;;;;;;;19.62;48.42;101236.16;125973;1096;22816;-61
2021/06/03 07:45:38;;;;;;;5.65;1.70;;;;;;;19.71;48.24;101233.05;125743;1101;22829;-63
2021/06/03 07:48:10;;;;;;;6.20;1.60;;;;;;;19.76;47.06;101240.78;125970;1101;23582;-62
2021/06/03 07:50:41;;;;;;;5.00;1.35;;;;;;;19.68;46.19;101229.19;125868;1094;22904;-64
2021/06/03 07:53:13;;;;;;;4.97;1.50;;;;;;;19.67;46.65;101230.50;125979;1096;26254;-65
2021/06/03 07:55:45;;;;;;;9.80;1.80;;;;;;;19.75;46.65;101233.56;125987;1101;23589;-64
2021/06/03 07:58:16;;;;;;;5.45;1.25;;;;;;;19.88;46.50;101234.56;125794;1096;25951;-65
2021/06/03 08:00:46;;;;;;;8.50;1.40;;;;;;;20.03;45.96;101237.84;126058;1096;26255;-63
2021/06/03 08:03:17;;;;;;;6.45;1.35;;;;;;;20.08;45.36;101234.23;126465;1101;22899;-64
2021/06/03 08:05:47;;;;;;;8.45;1.20;;;;;;;20.17;45.18;101242.42;125905;1101;24591;-63
2021/06/03 08:08:19;;;;;;;3.75;1.15;;;;;;;20.28;44.70;101241.63;125663;1101;22737;-63
2021/06/03 08:10:50;;;;;;;4.50;1.23;;;;;;;20.38;43.75;101234.36;125784;1101;22799;-63
2021/06/03 08:13:20;;;;;;;6.40;1.80;;;;;;;20.44;43.25;101231.51;126000;1096;22765;-63
2021/06/03 08:15:50;;;;;;;6.70;1.40;;;;;;;20.47;43.12;101236.89;125910;1096;22951;-63
2021/06/03 08:18:20;;;;;;;5.05;1.20;;;;;;;20.50;42.34;101241.53;125750;1101;22916;-64
2021/06/03 08:20:56;;;;;;;8.33;1.77;;;;;;;20.53;42.46;101239.69;125689;1101;22818;-63
2021/06/03 08:23:28;;;;;;;5.30;1.05;;;;;;;20.56;42.60;101233.76;125790;1101;22819;-63
2021/06/03 08:25:59;;;;;;;6.60;1.37;;;;;;;20.65;42.34;101241.19;125762;1096;22737;-63
2021/06/03 08:28:30;;;;;;;8.73;1.50;;;;;;;20.69;42.05;101239.59;127463;1101;22749;-64
2021/06/03 08:31:00;;;;;;;6.77;1.30;;;;;;;20.66;41.84;101237.05;125860;1101;22757;-63
2021/06/03 08:33:32;;;;;;;5.53;1.13;;;;;;;20.69;42.18;101242.42;126295;1101;22771;-63
2021/06/03 08:36:06;;;;;;;6.37;1.40;;;;;;;20.71;41.40;101239.09;125790;1101;22775;-64
2021/06/03 08:38:36;;;;;;;3.30;1.20;;;;;;;20.75;41.65;101233.90;125889;1101;24421;-65
2021/06/03 08:41:07;;;;;;;5.05;1.35;;;;;;;20.80;40.84;101235.91;125484;1101;22876;-64
2021/06/03 08:43:38;;;;;;;4.47;1.00;;;;;;;20.80;40.53;101241.59;126202;1097;27279;-63
2021/06/03 08:46:09;;;;;;;4.33;1.20;;;;;;;20.83;39.82;101237.70;126298;1096;22880;-63
2021/06/03 08:48:39;;;;;;;8.10;1.60;;;;;;;20.90;40.38;101239.96;125760;1101;22783;-63
2021/06/03 08:51:08;;;;;;;;;;;;;;;20.95;40.32;101242.00;125752;1101;22740;-63
2021/06/03 08:53:38;;;;;;;4.20;1.10;;;;;;;20.97;39.73;101245.08;125836;1096;21461;-64
2021/06/03 08:56:17;;;;;;;4.77;1.30;;;;;;;20.98;39.55;101240.95;125734;1101;22762;-63
2021/06/03 08:58:51;;;;;;;8.47;1.30;;;;;;;21.00;39.30;101243.27;125893;1096;22747;-63
2021/06/03 09:01:25;;;;;;;4.28;1.13;;;;;;;21.02;37.67;101240.66;125762;1101;22734;-62
2021/06/03 09:03:57;;;;;;;6.68;1.38;;;;;;;20.95;37.95;101236.33;125603;1101;23271;-63
2021/06/03 09:06:27;;;;;;;4.33;1.30;;;;;;;20.89;38.49;101236.38;125733;1096;26031;-63
2021/06/03 09:09:00;;;;;;;6.03;1.30;;;;;;;20.86;38.10;101239.47;125776;1101;22829;-62
2021/06/03 09:11:33;;;;;;;5.80;1.10;;;;;;;20.82;37.61;101230.48;125964;1095;27132;-63
2021/06/03 09:14:05;;;;;;;4.75;1.05;;;;;;;20.77;37.64;101234.14;125840;1101;22737;-63
2021/06/03 09:16:37;;;;;;;6.93;1.40;;;;;;;20.85;38.76;101233.05;125792;1096;27365;-62
2021/06/03 09:19:09;;;;;;;2.93;0.90;;;;;;;21.00;38.51;101231.91;125868;1096;22797;-63
2021/06/03 09:21:46;;;;;;;5.50;1.40;;;;;;;21.12;38.04;101242.68;126000;1101;22734;-63
2021/06/03 09:24:19;;;;;;;6.17;1.20;;;;;;;21.08;37.51;101244.26;125800;1096;28423;-62
2021/06/03 09:26:52;;;;;;;6.35;1.38;;;;;;;21.07;37.40;101243.48;125897;1096;25983;-63
2021/06/03 09:29:27;;;;;;;5.05;1.00;;;;;;;21.05;36.36;101243.23;125789;1101;22741;-63
2021/06/03 09:32:05;;;;;;;3.53;1.10;;;;;;;21.01;37.39;101237.05;125818;1101;24532;-64
2021/06/03 09:34:36;;;;;;;7.28;1.20;;;;;;;21.03;37.12;101237.32;125867;1101;22768;-64
2021/06/03 09:37:07;;;;;;;5.68;1.15;;;;;;;21.10;36.28;101241.66;126346;1101;22829;-65
2021/06/03 09:39:39;;;;;;;4.18;1.20;;;;;;;21.14;36.81;101242.92;126391;1101;23264;-64
2021/06/03 09:42:14;;;;;;;5.60;0.97;;;;;;;21.18;36.35;101234.88;126855;1096;22766;-64
2021/06/03 09:44:49;;;;;;;5.95;1.20;;;;;;;21.18;35.31;101232.04;126403;1101;22901;-64
2021/06/03 09:47:21;;;;;;;5.63;1.00;;;;;;;21.13;36.31;101230.00;126091;1101;24459;-65
2021/06/03 09:50:01;;;;;;;6.33;1.08;;;;;;;21.17;36.80;101235.42;126015;1101;22795;-64
2021/06/03 09:52:33;;;;;;;4.13;1.10;;;;;;;21.24;36.81;101241.28;126543;1101;22881;-64
2021/06/03 09:55:07;;;;;;;4.53;1.15;;;;;;;21.26;36.65;101238.68;126471;1101;25060;-64
2021/06/03 09:57:39;;;;;;;3.63;1.30;;;;;;;21.25;36.27;101230.70;125731;1096;22755;-64
2021/06/03 10:00:11;;;;;;;7.27;1.10;;;;;;;21.19;36.06;101224.30;125759;1101;22816;-64
2021/06/03 10:02:42;;;;;;;8.83;1.85;;;;;;;21.21;36.38;101233.05;125971;1101;22759;-62
2021/06/03 10:05:14;;;;;;;7.35;1.40;;;;;;;21.30;36.30;101224.95;125735;1096;22734;-63
2021/06/03 10:07:55;;;;;;;4.78;1.20;;;;;;;21.41;36.78;101226.92;126351;1101;22873;-63
2021/06/03 10:10:25;;;;;;;3.05;1.00;;;;;;;21.45;36.69;101225.34;125815;1101;22741;-62
2021/06/03 10:12:56;;;;;;;7.05;1.00;;;;;;;21.55;35.75;101232.20;125760;1101;23177;-63
2021/06/03 10:15:37;;;;;;;5.78;1.25;;;;;;;21.50;35.87;101229.40;126036;1101;22765;-62
2021/06/03 10:18:09;;;;;;;4.05;1.00;;;;;;;21.49;35.98;101228.66;126027;1101;23496;-64
2021/06/03 10:20:41;;;;;;;2.28;0.75;;;;;;;21.56;35.88;101221.62;125733;1101;22942;-63
2021/06/03 10:23:14;;;;;;;4.35;0.90;;;;;;;21.62;35.92;101214.55;125860;1096;22755;-62
2021/06/03 10:25:45;;;;;;;3.85;1.10;;;;;;;21.63;35.35;101212.48;125764;1101;22755;-63
2021/06/03 10:28:19;;;;;;;5.73;0.90;;;;;;;21.53;35.26;101205.63;125745;1101;22768;-62
2021/06/03 10:30:52;;;;;;;4.43;0.90;;;;;;;21.52;35.90;101210.52;125862;1101;24436;-62
2021/06/03 10:33:25;;;;;;;4.53;1.00;;;;;;;21.58;35.01;101208.39;125829;1096;22800;-63
2021/06/03 10:35:57;;;;;;;4.15;1.03;;;;;;;21.60;34.97;101219.99;125999;1096;26756;-63
2021/06/03 10:38:28;;;;;;;4.75;1.10;;;;;;;21.53;34.82;101214.14;125788;1101;22745;-62
2021/06/03 10:41:00;;;;;;;3.70;0.90;;;;;;;21.55;35.50;101215.16;125737;1101;22873;-62
2021/06/03 10:43:34;;;;;;;3.40;0.90;;;;;;;21.66;35.52;101209.34;125691;1101;22858;-61
2021/06/03 10:46:06;;;;;;;3.90;0.70;;;;;;;21.81;35.78;101213.84;125742;1101;22826;-62
2021/06/03 10:48:36;;;;;;;5.63;1.03;;;;;;;21.89;34.95;101203.45;125854;1101;22799;-64
2021/06/03 10:51:08;;;;;;;5.53;1.20;;;;;;;21.92;35.51;101208.05;125904;1101;22761;-63
2021/06/03 10:53:45;;;;;;;9.25;1.60;;;;;;;21.97;35.42;101205.16;126401;1101;22754;-65
2021/06/03 10:56:18;;;;;;;6.93;1.25;;;;;;;22.07;35.69;101197.78;126105;1101;22975;-62
2021/06/03 10:58:49;;;;;;;3.85;1.00;;;;;;;22.18;35.79;101200.47;125944;1101;22767;-64
2021/06/03 11:01:21;;;;;;;6.08;1.10;;;;;;;22.26;35.13;101192.85;125931;1101;22764;-63
2021/06/03 11:03:56;;;;;;;2.75;0.80;;;;;;;22.31;35.28;101188.40;125916;1101;22809;-62
2021/06/03 11:06:29;;;;;;;3.73;0.90;;;;;;;22.29;35.21;101188.17;125722;1101;22744;-63
2021/06/03 11:09:07;;;;;;;3.50;0.90;;;;;;;22.30;34.74;101179.12;125837;1101;22802;-62
2021/06/03 11:11:40;;;;;;;3.88;0.93;;;;;;;22.33;34.67;101180.09;125838;1101;22737;-63
2021/06/03 11:14:16;;;;;;;4.40;0.80;;;;;;;22.33;34.31;101172.34;125817;1101;23483;-63
2021/06/03 11:16:56;;;;;;;3.95;0.93;;;;;;;22.24;34.10;101178.41;125754;1101;22843;-62
2021/06/03 11:19:29;;;;;;;3.23;0.77;;;;;;;22.22;33.92;101177.42;126011;1101;22850;-63
2021/06/03 11:22:05;;;;;;;6.13;0.88;;;;;;;22.18;33.95;101174.12;125806;1101;24738;-62
2021/06/03 11:24:49;;;;;;;4.03;1.20;;;;;;;22.18;34.53;101179.81;126064;1096;22762;-63
2021/06/03 11:27:21;;;;;;;5.03;0.97;;;;;;;22.22;34.62;101169.64;125867;1096;27304;-62
2021/06/03 11:30:00;;;;;;;5.38;1.00;;;;;;;22.27;34.57;101171.65;126079;1096;22873;-64
2021/06/03 11:32:33;;;;;;;5.45;1.20;;;;;;;22.28;34.40;101167.52;125857;1101;22743;-64
2021/06/03 11:35:08;;;;;;;5.47;1.10;;;;;;;22.25;34.14;101159.27;125920;1101;22755;-63